Race Results for
Green Mountain Stage Race
Waitsfield, VT
(Event Information)
Road Race on 09/07/2009

Note: Ranking points are NOT upgrade points. An explanation of ranking points can be found here.


Men - Cat 1

 Place Points NameCity, StateTime USAC #BibTeam
1Andres Diaz   3:13:42.00  46 GS Mengoni
2175.91James Driscoll   Park City, UT3:14:2.00 163112  49 BikeReg.com / Cannondale
3Johan Lindgren   3:14:15.00  78 Team Cykelcity.se
4180.40Matthew Cooke   Boulder, CO3:14:15.00 190900  44 Battley Harley-Davidson
5182.64Daniel Vaillancourt   Saco, ME3:14:37.00 174967  120 Colavita/Sutter Home
6184.89William Dugan   Burlington, VT3:14:43.00 203975  CCB RACING
7Benjamin Martel   3:14:43.00  80 MainLine Cycling - BiKyle/MazurCoaching
8David Boily   3:14:43.00  29 Pro Bike Pool Kuota
9191.61Christopher Hong   Columbus, OH3:14:49.00 239322  59 Bob's-Bicycles.com
10193.86Michael Barton   White River Junction, VT3:14:54.00 135389  19 Strava
11196.10Jonathan Awerbuch   Boulder, CO3:14:54.00 206355  NorEast Cycling
12Jordan Cheyne   3:15:0.00  37 MainLine Cycling - BiKyle/MazurCoaching
13200.58Jonathan Chodroff   Kennett Square, PA3:15:0.00 230448  39 OUCH/MAXXIS
14202.83Peter Hurst   Norwalk, CT3:15:0.00 148404  64 Rapha Racing
15Kalle Sandell   3:15:3.00  104 Team Cykelcity.se
16207.31Justin Spinelli   Nashua, NH3:15:3.00 121800  108 Svelte Cycles
17209.56Peter Horn   Boulder, CO3:15:7.00 145882  61 Johan Bruyneel Cycling Academy
18Mathew Bell   3:15:9.00  VW-Specialized
19214.04Cameron Cogburn   Cambridge, MA3:15:9.00 235379  42 ChrisCookies/SwanCycles
20Vincent Quirion   3:15:12.00  98 Garneau Club Chaussures Ogilvy Renault
21218.53Benjamin King   North Garden, VA3:15:16.00 210212  73 Trek-LiveSTRONG
22220.77Robbie King   North Andover, MA3:15:16.00 168259  74 IF/Lionette's
23223.01Sean Barrie   Washington, DC3:15:22.00 198408  17 Battley Harley-Davidson
24Antoine Matteau   3:15:22.00  82 Garneau Club Chaussures Ogilvy Renault
25Sebastian Balck   3:15:22.00  14 Team Cykelcity.se
26229.74Charles McCarthy   Burlington, VT3:15:22.00 99405  83 MetLife Cycling Team
27231.98Joshua Dillon   Stowe, VT3:15:22.00 174590  BikeReg.com / Cannondale
28Andre Tremblay   3:15:22.00  118 Pro Bike Pool Kuota
29236.47Ian Holt   Colorado Springs, CO3:15:22.00 178103  US Armed Forces
30Nick Friesen   3:15:22.00  52 JBCA (Johan Bruyneel Cycling Academy)
31240.95David Glick   Tucson, AZ3:15:22.00 175967  60 RideClean p/b PatentIt.com
32243.20Adrian Hegyvary   Bellevue, WA3:15:22.00 148088  58 Hagens-Berman LLP
33245.44Joshua Bartlett   Windham, NH3:15:22.00 156797  18 Land Rover-ORBEA
34247.68Justin Lindine   North Ogden, UT3:15:47.00 205717  BikeReg.com / Cannondale
35Patrik Stenberg   3:15:51.00  111 Team Cykelcity.se
36252.17Michael Margarite   New York, NY3:15:51.00 211807  79 CRCA/Empire Cycling Team p/b Northwave
37254.41Jared Gilyard   Flagstaff, AZ3:15:51.00 226665  54 RideClean p/b PatentIt.com
38Cameron Jette   3:15:57.00  68 Trek Store Race Team
39258.90Bryan McVey   Arlington Heights, IL3:15:57.00 264045  86 
40261.14Lisban Quintero   New York, NY3:16:2.00 220839  CRCA/ Foundation
41263.38Kevin Wolfson   Cambridge, MA3:16:11.00 126022  124 IF/Lionette's
42265.63James Mattis   Mountain View, CA3:16:13.00 127344  84 Cal Giant Berry Farms/Specialized
43Mark Walters   3:16:13.00  122 MainLine Cycling - BiKyle/MazurCoaching
44Jean Francois Racine   3:16:13.00  105 Garneau Club Chaussures Ogilvy Renault
45272.35Aidan Charles   Middletown, CT3:16:24.00 164128  36 CCNS
46274.60Jeff Zygo   Scottsville, NY3:16:27.00 232379  129 MVP Health Care Cycling
47Jamie Riggs   3:16:29.00  101 JetFuel Cycling
48Yannick Bydard   3:16:34.00  21 Equipe Gaspesien
49281.32Adam Carr   Colchester, VT3:16:37.00 208854  35 Team Ten Speed
50283.57Will Riffelmacher   San Francisco, CA3:16:37.00 230258  100 Olympic Club
51Mark Batty   3:16:43.00  20 Planet Energy
52288.05Peter Bradshaw   Boston, MA3:16:45.00 120392  27 Embrocation Cycling Journal
53290.30Nathaniel Thompson   Middletown, MD3:16:49.00 227840  113 Team Latitude/ABRT
54292.54Daniel Zmolik   New York, NY3:16:54.00 204958  128 CRCA/Empire Cycling Team p/b Northwave
55294.78William Letendre   Etna, NH3:16:54.00 20980  77 Strava Velo
56Joel Dion-Poitras   3:16:54.00  47 Planet Energy
57Mathieu Roy   3:17:3.00  103 Nativo Concept
58301.51Dan Timmerman   Clay, NY3:17:9.00 79102  114 BikeReg.com / Cannondale
59303.75Michael Mathis   Tucson, AZ3:17:20.00 200845  87 CRCA/Empire Cycling Team p/b Northwave
60306.00Ryan Fleming   Exeter, NH3:17:20.00 184042  51 MetLife Cycling Team
61308.24Neil Bezdek   New York, NY3:17:26.00 276693  24 GS Mengoni USA
62310.48Jerome Townsend   Princeton, MA3:17:26.00 196503  116 IF/Lionette's
63Andrew Hunt   3:17:33.00  63 Planet Energy
64Keir Plaice   3:17:38.00  96 Planet Energy
65317.21Jesse Anthony   Newbury Park, CA3:17:41.00 154883  11 Team Type 1
66Evan Mundy   3:17:50.00  90 Team MCOR
67321.69Dylan mcnicholas   Stratham, NH3:17:52.00 268394  85 CCB Racing
68323.94Charles Hutcheson   Sacramento, CA3:18:17.00 54686  65 US Armed Forces
69326.18Thom Coupe   Plymouth, NH3:18:23.00 160731  45 BikeReg.com / Cannondale
70328.42David Nelson   Tempe, AZ3:18:36.00 141105  92 JBCA/ Cycling Cemter
71Justin Steeds   3:18:54.01  109 MainLine Cycling - BiKyle/MazurCoaching
72332.91Nicholas Bennette   Seattle, WA3:19:12.00 186239  23 MetLife Cycling Team
73Ugo Lapierre   3:19:18.00  76 Novabrik
74337.39Cory Burns   Watertown, NY3:19:20.00 133640  34 Embrocation Cyling Journal Elite Team
75339.64Charles Marzot   Falmouth, MA3:19:29.00 167848  81 Team Mountain Khakis p/b EPNO
76Austin Roach   3:20:2.00  102 MetLife Cycling Team
77344.12Alister Ratcliff   Durango, CO3:20:12.00 193797  99 BikeReg.com / Cannondale
78346.37Eric Tremble   Jericho, VT3:20:43.00 212585  119 Spooky / NCC / Kenda
79348.61Matthew Johnson   New Haven, CT3:20:43.00 52098  CRCA/Empire Cycling Team p/b Northwave
80350.85Jonathan Bruno   Boston, MA3:20:58.00 159158  32 IF/Lionette's
81353.09Igor Volshteyn   Dallas, TX3:21:21.00 36785  121 Champion System Racing/Cycles Gladiator
82Hugo Houle   3:21:31.00  Garneau Club Chaussures Ogilvy Renault
83357.58Jason Baer   South Burlington, VT3:22:16.00 71022  12 Spooky / NCC / Kenda
84359.82Sam Johnson   Boise, ID3:23:36.00 208321  69 Hagens Berman
85362.06Nathaniel Ward   Lewisville, NC3:23:54.00 217857  126 Spooky / NCC / Kenda
86364.31Alec Donahue   Easthampton, MA3:24:18.01 129914  48 Spooky / NCC / Kenda
87Jean-Sebastien Beland   3:24:26.00  22 VW-Speciliazed
88Jan Zak   3:24:50.00  127 MainLine Cycling - BiKyle/MazurCoaching
89371.04Jake Hollenbach   Shelburne, VT3:24:53.00 189818  15 CRCA/Empire Cycling Team p/b Northwave
90373.28John Loehner   New York, NY3:25:1.00 47769  132 CRCA/Empire Cycling Team p/b Northwave
91William Blackburn   3:25:13.00  28 
92Joshua Alexander   3:25:23.00  16 CRCA/ Foundation
93Simon Lambert Lemay   3:25:29.00  75 Davo/Lotto/Davitmon
94382.25George Ganoung   Hedgesville, WV3:25:52.00 99328  53 US Armed Forces
95384.49Adam Myerson   Dorchester, MA3:25:58.00 52534  91 Team Mountain Khakis
96386.74Kenneth Young   Jacksonville, NC3:26:2.00 233138  125 US Armed Forces
97388.98Alejandro Guzman   New York, NY3:26:32.00 238008  57 CRCA/ Foundation
98Arnaud Papillon   3:26:40.00  95 Volkswagen-Specialized
99393.46Timothy Mitchell   Ashland, MA3:30:19.00 137395  88 MetLife Cycling Team
100395.71Todd Yezefski   Medford, MA3:30:19.00 104840  130 IF/Lionette's
101397.95Nicholas Keough   Sandwich, MA3:30:19.00 203439  71 BikeReg.com / Cannondale
102400.19Eric Schildge   Hanover, NH3:30:19.00 206020  131 BikeReg.com / Cannondale
103402.43Stephen Weller   Leverett, MA3:30:19.00 178236  123 BikeReg.com / Cannondale
104404.68Andrew Christian   Charleston, SC3:30:19.00 241229  41 US Armed Forces
105406.92Matthew Purdy   Albany, NY3:30:30.00 156640  97 Spooky / NCC / Kenda
106409.16Matthew O'Keefe   Ipswich, MA3:30:48.00 83528  94 CCB Racing
107411.41Amos Brumble IV   Westerly, RI3:30:56.00 5230  40 CCB racing
108Aliaksandr Bialiauski   3:30:56.00  25 CCB Racing Team
109415.89Guy East   Unionville, IN3:31:0.00 174108  50 Trek/LiveSTRONG
110418.13Vincent Scalia   Queensbury, NY3:33:16.00 213405  106 MetLife Cycling Team
111420.38Stephen Kincaid   Reading3:33:21.00 19139  72 CRCA/Empire Cycling Team p/b Northwave
112422.62Trevor Johnson   Sherwood, AR3:34:47.00 234129  70 
113424.86Sean Coleman   Land O Lakes, FL3:35:25.00 121299  43 US Armed Forces
114427.11Keck Baker   New Kent, VA3:38:54.00 211712  13 Battley HARLEY-DAVIDSON/Sonoma
115William Goodfellow   3:43:18.00  55 VW SPECIALIZED
116431.59Eugene Boronow   Tucson, AZ3:44:7.00 57369  31 GS Mengoni
117Yahor Buben   3:44:22.00  33 CCB Racing Team
118Adam Alexander   3:47:53.00  10 CRCA/ Foundation
119438.32Andrew Chocha   Shreveport, LA3:51:13.00 78680  38 US Armed Forces
120440.56Colin Jaskiewicz   Montclair, NJ3:55:52.00 218049  67 CCB Racing
121442.80Adam Sullivan   North Kingstown, RI3:55:59.00 199084  112 Spooky / NCC / Kenda

Men - Cat 2

 Place Points NameCity, StateTime USAC #BibTeam
1304.88Steven Black   Vienna, VA3:26:54.00 251406  207 NCVC/Inova Health Systems
2308.09Wayne Bray   New Hartford, NY3:27:44.00 230528  208 Syracuse Bicycle / Spokepost.com
3311.29David Taylor   New York, NY3:27:57.00 172065  273 CRCA/Blue Ribbon-Translations.com
4314.50Owen Pope   Burlington, VT3:30:0.00 198143  256 BikeReg.com
5317.70Chris Johnson   Philadelphia, PA3:30:58.00 87702  233 Above Category Racing
6320.91Matt Mainer   Hinesburg, VT3:31:13.00 229526  243 Spooky / NCC / Kenda
7324.11Mark Alden   Montvale, NJ3:31:21.00 1319  200 CRCA/Blue Ribbon-Translation.com
8327.32Matthew Buckley   Burlington, VT3:31:21.00 242892  209 CLNoonan/KAM/Coast to Coast
9330.52Todd Roberts   Easthampton, MA3:31:25.00 30121  259 NCC
10333.73Christopher Laflamme   Westbrook, ME3:31:27.00 212692  239 Embrocation Cycling Journal
11336.93David Costa   Roselle Park, NJ3:31:27.00 218866  218 Anthem Sports Elite Development
12340.14Don Sproull   Auburn, NY3:31:36.00 210436  269 ChrisCookies.com/Swan Cycles/FLCC
13343.34Matt Cuttler   Los Angeles, CA3:31:48.00 266432  221 CRCA/Jonathan Adler Racing
14346.55Stoney Landers   Glendale, CA3:31:52.00 166745  240 Hagens Berman
15349.75Jonathan Knight   Seattle, WA3:31:55.00 199125  236 Hagens Berman
16352.96Gregg Galletta   Dobbs Ferry, NY3:31:59.00 97363  224 CRCA - Pacifico/Hincapie Sportwear
17Chris Hillier   3:31:59.00  230 Colavita Sutter-Home New England
18359.37Erin Korff   Brooklyn, NY3:32:2.00 60297  238 CRCA/AXIS
19362.57Evan Cooper   Closter, NJ3:32:8.00 248002  217 Northeastern Hardware/CJCT
20365.78Nick Pignatello   Cobalt, CT3:32:8.00 240810  254 Exodus Road Racing
21Kenyon Campbell   3:32:10.00  211 Westwood Cycles/Cannondale
22372.19Justin Maka   Albuquerque, NM3:32:17.00 164982  244 Ten Speed Drive / BH Bicycles
23375.39Christopher Kohnle   Manchester, CT3:32:21.00 186430  237 CCNS
24378.60Jonathan Bernhard   Beverly, MA3:32:31.00 3496  204 CCB Racing
25381.80Christopher Hamlin   Jonesville, VT3:32:36.00 232942  229 University of Vermont
26Peter Tregunno   3:32:39.00  275 Ottawa Bicycle Club
27388.21Peter Petrillo   Hamden, CT3:32:45.00 163906  253 CVC/Subaru of New England
28391.42Peter Bell   Cambridge, MA3:32:45.00 199984  203 MetLife Cycling Team
29394.62James Combs   Austin, TX3:32:45.00 234976  216 Embrocation Cycling Journal
30397.83Mark Pohndorf   Pottersville, NJ3:32:50.00 237877  255 Colavita Racing
31401.03David Hoyle   Rocky Hill, CT3:32:50.00 223454  231 CCNS
32404.24Christopher Chaput   New York, NY3:32:50.00 190425  213 CRCA/Jonathan Adler Racing
33407.45Lee Peters   Oakland, CA3:32:50.00 252197  252 Watts Up Racing
34410.65Thomas Jondall   Rancho Santa Margarita, CA3:32:55.00 243091  234 Landis/Trek/VW
35413.86Landen Wark-Acebo   Brookline, MA3:33:6.00 237597  277 NEBC/Cycle Loft/Devonshire Dental
36417.06Brian Campbell   Waltham, MA3:33:11.00 210587  210 NEBC/Cycle Loft/Devonshire Dental
37420.27Paul Levis   Ossining, NY3:33:15.00 195097  242 CRCA/Blue Ribbon-Translations.com
38Derek Harnden   3:33:23.00  235 University of Vermont
39426.68Peter Chiu   New York, NY3:33:23.00 222037  220 NEBC/Cycle Loft/Devonshire Dental
40Rhys Spencer   3:33:31.00  268 Project Freeride
41433.09Kevin Putman   Wells, NY3:33:35.00 228810  257 Anthem Sports Elite Development
42436.29Christopher Worden   Chatham, NJ3:33:42.00 191069  278 CCB Racing
43439.50Kurt Gustafsson   Brooklyn, NY3:33:42.00 14451  227 CRCA/AXIS
44442.70J Partland   New York, NY3:33:48.00 27351  250 Kissena Cycling Club
45445.91Mike Nadeau   Montgomery, MA3:34:7.00 236879  249 NEW ENGLAND BIKE / NCC
46449.11Andreas Runggatscher   Monroe, NY3:34:15.00 189842  262 Westwood Velo
47452.32Christopher Coutu   Upton, MA3:34:25.00 220674  219 MetLife Cycling Team
48455.52James Tosca   Osterville , MA3:35:3.00 35793  274 Corner Cycle
49458.73James Morrison   Sidney, ME3:35:19.00 246459  248 Embrocation Cycling Journal
50461.93Peter Shapiro   Lebanon, NH3:35:25.00 246180  266 NEBC/Cycle Loft/Devonshire Dental
51Stacy Wall   3:35:48.00  276 Mcor
52468.34Anthony Hall   Brooklyn, NY3:36:9.00 257024  228 CRCA/Luzzo's Coal Fired Pizza
53471.55Steven Roszko   Westhampton3:37:25.00 56688  260 BikeReg.com / Cannondale
54474.75Andrew Bernstein   Allentown, PA3:38:57.00 204817  205 Anthem Sports Elite Development
55477.96Ronald LaRose   Norwich, CT3:39:26.00 247736  241 CCNS
56481.16David Fierro   Gales Ferry, CT3:39:47.00 242328  223 Exodus Road Racing/Brumble Bikes
57484.37Benjamin Carbonetti   Manchester, CT3:41:6.00 197142  212 NorEast Cycling
58487.57Patrick Goguen   Hopedale, MA3:41:50.00 195075  226 NEV & CP / Bobcat of NH
59490.78Damien Colfer   Newmarket, NH3:42:25.00 159160  215 
60493.98Kyle Peppo   New York, NY3:43:33.00 231787  251 CRCA/Jonathan Adler Racing
61497.19Timothy Rugg   Harrisonburg, VA3:44:3.00 280764  261 The Bike Rack
62500.39Andrew Gardner   Ripton, VT3:45:3.00 173470  225 MetLife Cycling Team
63503.60John McGill   Montpelier, VT3:48:5.00 101738  246 Onion River Sports
64506.80Corey Masson   Newmarket, NH3:49:15.00 231692  245 MetLife Cycling Team
65510.01Adam St Germain   Burlington, VT3:49:27.00 193706  271 Team Home Court Advantage
66513.22Alan Schmitz   Medina, WA3:54:15.00 197583  264 Hagens Berman LLP
67516.42Michael Rea   Norwich, VT3:54:22.00 214496  258 NorEast Cycling
68519.63Trenton Ashburn   Boston, MA3:56:14.00 153214  201 Wheelworks
69522.83Marc Bertucco   New York, NY3:56:51.00 44238  206 ABD Cycling Team
70526.04Kyle Smith   Acton, MA3:57:11.00 202213  267 Embrocation Cycling Journal
71529.24Matt Rossman   Salt Lake City, UT4:6:7.00 195297  265 NorEast Cycling
72532.45Jeremy Durrin   Easthampton, MA4:16:5.00 250645  222 Northampton Cycling Club / NCC
73535.65sergio atocha   East Elmhurst, NY4:21:22.00 251001  202 champion system racing / gladiator wine

Men - Cat 3

 Place Points NameCity, StateTime USAC #BibTeam
1367.36Randall Jacobs   Brighton, MA3:34:5.00 266868  351 Wheelworks
2369.72John Landino   Ridgewood, NJ3:35:46.00 230099  359 DeathRow Velo
3372.08William Shattuck   Bridgewater, MA3:35:52.00 167407  387 bikebarnracing.com
4Nicolas Therrien   3:35:52.00  398 Espoirs Laval
5376.80Brett Cleaver   Brooklyn, NY3:35:52.00 186936  332 Sommerville Sports
6379.16Elliot Hawkes   Stanford, CA3:35:55.00 275956  348 Harvard U Cycling
7381.52Gerry Clapper   Avon, CT3:36:5.00 223515  331 Williams Cycling
8383.88Rob McHardy   Cary, NC3:36:12.00 205842  368 Williams Cycling
9386.24Corey Lowe   Morgan Hill, CA3:36:16.00 165582  360 Stage 1
10388.60Colby Ricker   Boulder, CO3:36:20.40 257288  380 DeathRowVelo
11390.96Timothy Brown   Venice, CA3:36:29.00 281236  320 The Bike Rack
12393.32Marshall Ambros   Burlington, VT3:36:38.00 201936  301 Watts Up Racing
13395.67Joaquin C de Baca   Brooklyn, NY3:36:41.00 207869  325 KISSENA
14398.03Todd Robertson   Boulder, CO3:36:49.00 209859  383 Skins Racing
15400.39Victor Riquelme   Tucson, AZ3:36:49.00 282338  381 Aggress
16402.75Aaron Phipps   Poughkeepsie, NY3:36:53.00 246979  376 bikesenjava
17405.11Jim Komarmi   Richmond, VT3:36:53.00 231757  358 American Flatbread Cycling
18Anton Varabei   3:36:53.00  399 CycleSolutions/AngryJohnnys Racing
19Franzois-Charles Malo   3:36:59.00  363 Dynamiks de Contrecoeur
20412.19Stephen Francisco   Williston, VT3:36:59.00 117382  344 North Atlantic Velo/ClassBook.com/Giant/
21414.55Gary Aspnes   Rockville, RI3:37:5.00 208131  303 Horst-Benidorm-Property Research Corp.
22416.91Miguelangel Blanco   Rego Park, NY3:37:5.00 247758  313 
23419.27Jamie Belchak   Killington, VT3:37:8.00 172803  311 North Atlantic Velo/ Giant/ Pedros
24421.63Jacob Bobrow   Burlington, VT3:37:8.00 289933  314 University of Vermont
25423.99Andrew Armstrong   Brooklyn, NY3:37:8.00 256830  302 NCVC/Inova Health System
26426.35Tron Witt   New York, NY3:37:15.00 249328  407 CRCA/Jonathan Adler Racing
27428.71Abraham Soler   New York, NY3:37:20.00 251037  390 CRCA/ Foundation
28431.07Robert Sheffield   Kansas City, MO3:37:20.00 271875  389 Squadra Coppi/IM Saab
29433.43Jamie Emerson   Boulder, CO3:37:20.00 205234  339 
30435.79Terry Totemeier   Simsbury, CT3:37:25.00 96443  404 U.S. Army/Central Wheel-GHCC
31Philippe Auclair   3:37:27.00  304 Espoirs Laval
32440.51David Mitchell   San Diego, CA3:37:27.00 199149  371 NorEast Cycling
33442.87Greg Herrman   Pittsfield, MA3:37:32.00 217143  349 NorEast Cycling
34445.23Chris Rodgers   Lawrenceville3:37:32.00 235971  384 Colavita Racing
35447.59Harry Stover   Brooklyn, CT3:37:35.00 211872  395 bikebarnracing.com
36449.94Damian Bolduc   South Burlington, VT3:37:37.00 201223  318 
37452.30aron buterbaugh   South Portland, ME3:37:41.00 269217  324 OA/CycleMania
38454.66James Stevens   Brooklyn, NY3:37:44.00 277525  394 GS Gotham/Toga
39457.02Ronald Colavolpe   North Yarmouth, ME3:37:52.00 7295  333 OA/CycleMania
40459.38Bruce Beauharnois   Peru, NY3:37:57.00 245611  310 Team Placid Planet
41461.74Keith Reynolds   Burlington, MA3:38:5.00 242949  379 NEBC/Cycle Loft/Devonshire Dental
42464.10Joseph Azze   Sloatsburg, NY3:38:5.00 222315  306 Team Blue Ribbon-Translations.com
43466.46Richard Brooks   Nantucket, MA3:38:5.00 266691  317 Nantucket Velo
44468.82Todd Burns   Nantucket, MA3:38:19.00 202406  323 Nantucket Velo
45471.18Edward Schaub   Wheaton, IL3:38:23.00 108600  386 Mystic Velo
46473.54Andrew Lytwynec   Rochester, NY3:38:26.00 271211  361 Full Moon Vista
47475.90Matthew Spaits   Somerville, MA3:38:32.00 208060  391 Cambridge Bicycle / Igleheart Frames!
48478.26Jack Piller   Keene, NY3:38:38.00 60574  377 Battenkill-United
49480.62Frank Marowitz   Manchester, NH3:38:53.00 101411  365 NorEast Cycling
50482.98Damien Callahan   Burlington, VT3:38:53.00 95709  326 NCC
51485.34David Carr   New York, NY3:39:1.00 256699  328 CRCA/Setanta
52487.70Jason Moriarty   Stafford Springs, CT3:39:4.00 268020  373 Colavita Racing Inc.
53490.06Todd Jakubek   Cambridge, MA3:39:10.00 226906  352 Colavita Racing Inc.
54Paul McCloskey   3:39:15.00  366 Peterborough Cycling Club
55494.78Philip Beard   Middlesex, VT3:39:20.00 3025  309 Onion River Sports
56497.14Cory Johannessen   Roslindale, MA3:39:27.00 240899  353 Threshold Cycling
57499.50Brian Klotz   Corning, NY3:39:34.00 260934  357 Corning Race Team
58501.85Mark Dakoulas   Hartland, VT3:39:45.00 159964  336 North Atlantic Velo/Classbook.com/GIANT/
59504.21Brendan Flannagan   Endicott, NY3:39:49.00 197507  343 Chenago Point Cycles
60Antoine Malo   3:39:51.00  362 Espoirs Laval
61508.93Justin Orkney   Tucson, AZ3:39:56.00 257895  374 Summit Velo
62511.29Paul Talbot   Torrington, CT3:40:12.00 286907  397 U.S. ARMY/Central Wheel - GHCC
63513.65Jordan Winkler   Boulder, CO3:40:16.00 266369  406 Cambridge Bicycle / Igleheart Frames
64516.01Nicholas Petterssen   Plainfield, VT3:40:32.00 266865  375 Onion River Sports
65518.37Chad Jolin   Old Orchard Beach, ME3:40:41.00 243502  354 Base36/SMCC/Gorham Bike
66520.73Cosmo Catalano   Hartford, CT3:41:3.00 199287  329 CYCLOCOSM.COM
67523.09Patrick Campbell   Fayston, VT3:41:3.00 120800  327 Westwood Velo
68525.45Kevin Brubaker   New York3:41:7.00 239671  321 CRCA/Pacifico-Hincapie Sportswear
69527.81Keith Gauvin   Ellington, CT3:41:7.00 125555  346 cyclonaut racers
70530.17William McGreevy   Wilmington, NY3:41:30.00 226407  367 Team Placid Planet
71532.53Leo Desforges   Newton, MA3:43:47.00 266110  334 Threshold Cycling
72534.89Jesse Chebot   Berkeley, CA3:45:34.00 209391  330 University of Vermont
73Gabriel Michaud   3:45:58.00  370 espoirs de laval
74Adam Fitzsimmons   3:46:7.00  342 Norco Evolution
75Jean-Francois Gagne   3:46:10.00  345 Espoirs Laval
76544.33Scott Brooks   Westford, MA3:47:3.00 189995  319 NEBC/Cycle Loft/Devonshire Dental
77546.69Martin Austermuhle   Washington, DC3:47:36.00 274500  305 The Bike Rack
78549.05Matthew Spence   Montpelier, VT3:48:33.00 173366  392 Onion River Sports
79551.41Brett Walker   Salisbury, NH3:49:7.00 239583  400 Hammer/FUJI/Bikeman.com
80553.77Dan Boozan   Scottsdale, AZ3:49:9.00 174592  316 North Atlantic Velo/ClassBook.Com/Giant/
81556.12Justin Howe   Baltimore, MD3:50:55.00 190729  350 NEBC/Cycle Loft/Devonshire Dental
82558.48Mike Wiles   New Haven, CT3:51:21.00 191469  405 Devil's Gear Bikes
83560.84Claude Raineault   Underhill, VT3:51:59.00 207347  378 American Flatbread Cycling
84563.20Andrew Nasca   Beacon, NY3:52:50.00 275314  372 Bikeway
85565.56Christopher Bailey   Providence, RI3:53:48.00 220545  307 Team Pedro's p/b +3 Network
86Mike Steed   3:53:51.00  393 Norco Evolution
87570.28Jeffrey Whittingham   Waitsfield, VT3:54:4.00 135428  403 Independent Fabrication
88Andrew Davy   3:58:29.00  337 Independent
89575.00Patrick Barter   Wilder, VT4:7:32.00 257506  308 International Bicycle Centers/Global
90577.36Jared Katz   Richmond, VT4:10:50.00 87239  355 Onion River Racing
91579.72Matt D'Alessio   Somerville, MA4:22:12.00 273010  335 Threshold Cycling
92582.08Curtis Boivin   Rye, NH4:32:2.00 120079  315 Refunds Now
93Grygorie Dupuis Mcdonald   4:42:55.00  338 Sports Bazar
94586.80Matthew Goedeke   Selkirk, NY4:49:27.00 271259  347 Anthem Sports Elite Development

Men - Cat 4

 Place Points NameCity, StateTime USAC #BibTeam
1423.35Nigel Kinney   Chanhassen, MN3:43:40.00 297103  760 Gear West Bike and Triathlon
2425.14Chris Leong   New York, NY3:43:44.00 20937  764 CRCA/NYVelocity
3426.93Andrew McCullough   Montpelier, VT3:43:46.00 293408  771 Onion River Sports
4428.73Pavel Gonda   New York, NY3:43:49.00 300267  740 New York University
5430.52Robert Haber   New York, NY3:44:32.00 123941  745 CRCA/FGX Racing
6432.31Alex Abarbanel-Grossman   3:44:32.00 276886  744 Jimenez Velo Sport
7434.10Ryan Short   Kirkland, WA3:44:32.00 217099  798 Team Placid Planet
8435.89kevin mosher   Voorheesville, NY3:44:55.00 276954  781 C B R C
9paul fronhofer   Argyle, NY3:44:55.00 262328  735 Battenkill United
10439.48Adam Francis   New Haven, CT3:45:5.00 274866  733 
11441.27Matthew Sack   Cheshire, CT3:45:14.00 258860  793 Cheshire Cycle Racing
12443.06Tony Battista   Watertown, NY3:45:14.00 282526  710 
13444.85Tristan Baldwin   Amherst, NH3:45:20.00 290603  705 
14446.65Ira Blumberg   New York, NY3:45:30.00 264625  709 CRCA/Setanta
15448.44Jack Jefferies   Avon, CO3:45:36.00 229853  757 CRCA/Kingpin Racing-HJD
16450.23Phil Penman   New York, NY3:45:36.00 234885  787 CRCA / Teany Cycling
17452.02Christian Verry   Saint Louis, MO3:45:46.00 276629  802 Tulsa Wheelmen
18453.81Gregory Donovan   New York, NY3:45:46.00 279216  725 Kissena Cycling Club
19455.60Carl Wittig   Portsmouth, NH3:45:56.00 263239  808 bikebarnracing.com
20457.40Shane Moran   Piermont, NY3:46:8.00 216570  780 Westwood Velo
21459.19Kevin Hays   Newton, MA3:46:15.00 204148  747 OA/Cyclemania
22460.98Jake McLaughlin   Lyme, NH3:46:19.00 280819  774 Upper Valley Velo
23462.77Matthew Griswold   Boston, MA3:46:19.00 288393  743 Back Bay Bicycles/Espresso Royal Cafe
24464.56Walter Archer   Canterbury Nh3:46:19.00 296443  702 
25466.36David Anthony   New York, NY3:46:35.00 280592  701 CRCA/NYVelocity
26468.15Michael Beckerman   Ridgewood, NJ3:46:35.00 248001  706 CRCA/FGX Racing
27469.94Benjamin Fackler   New York, NY3:46:35.00 269252  729 CRCA/NYVelocity
28471.73Christopher Grady   Douglas, MA3:46:35.00 236181  742 East End / Kreb Cycle
29473.52Bill Kenney   Plymouth, MA3:46:41.00 283620  759 bikebarnracing.com
30475.32David Richman   Brooklyn, NY3:46:44.00 90680  790 CRCA/Kingpin Racing-HJD
31477.11Alexander Barouh   Brooklyn, NY3:46:44.00 286939  704 Kissena Cycling CLub
32478.90N/A   New York City3:46:47.00 252717  800 CRCA/FGX Racing
33480.69Michael Desmarais   Essex Jct, VT3:47:10.00 274594  724 University of Vermont
34482.48Justin Henderson   Berlin, NH3:47:14.00 279191  749 Colavita Racing
35484.28Geoff McIntosh   Concord, NH3:47:34.00 138727  773 New Hampshire Cycling Club
36486.07Kyle Clark   Underhill, VT3:47:42.00 102499  720 Team Dynapower
37487.86Matthew Miller   Roslindale, MA3:47:45.00 242695  777 OrganicAthlete
38489.65George Lowe   Alexandria, VA3:47:49.00 290875  767 
39491.44Jeff Hebert   Boston, MA3:48:27.00 219254  748 Boston Road Club
40493.24Jorge Orrego   Ridgefield Park, NJ3:48:30.00 286637  784 Strictly Bicycles
41495.03David Kahn   New Haven, CT3:48:34.00 272928  758 Yale
42496.82Jonathan Moncton   Washington, DC3:48:40.00 204268  778 
43498.61Mitchell Jacaruso   New York, NY3:48:48.00 282121  755 CRCA/NYVELOCITY
44500.40Randall Levere   Boston, MA3:48:48.00 230380  765 Threshold Cycling
45502.20Matthew Rettig   Cornwall, NY3:49:10.00 247425  789 CRCA
46503.99michael wissell   Hyde Park, MA3:49:10.00 284535  807 back bay bicycles/ espresso royale caffe
47505.78Jon Hussey   Saratoga Springs, NY3:49:26.00 275968  753 CRCA
48507.57Gregory Brown   Grantham, NH3:49:28.00 268159  713 Drummond Custom Cycles
49509.36Matt Mallet   Corvallis, OR3:49:52.00 227664  768 Hudson Valley Velodrome
50511.15Chad Casselman   Bronx, NY3:50:34.00 246356  715 CRCA/FGX Racing
51512.95Charles Cavness   Denver, CO3:50:56.00 250087  719 Middlebury College
52514.74Jeffrey Hershberger   Greenwood, ME3:51:37.20 277977  750 Bikeman.com
53516.53Geoff Martin   Watertown, MA3:51:47.00 180528  770 NEBC/Cycle Loft/Devonshire Dental
54518.32Richard Drummond   Enfield, NH3:51:51.00 200075  726 Upper Valley Velo/Drummond custom cycles
55520.11Gregg Izzo   Randolph, MA3:52:3.00 291083  754 Green Line Velo
56521.91Benjamin Pagano   Hudson, MA3:52:31.20 281677  785 NEBC/Cycle Loft/Devonshire Dental
57523.70Derek Sakamoto   Middlebury, VT3:52:52.00 275287  794 Middlebury College
58525.49Matthew Casserly   Holliston, MA3:52:52.00 292899  717 
59Grant Goudge   3:53:50.00  741 Bicycle Works
60529.07Tim Noel   Shelburne, VT3:54:42.00 247767  782 GMBC/Catamount
61530.87Clayton McPhail   New York, NY3:57:12.00 243745  775 CRCA/NY Velocity
62532.66Zachary LaBry   Somerville, MA3:57:14.00 235849  763 MIT Cycling / FXDD
63534.45Daniel Schwartz   Washington, DC3:57:23.00 270741  795 NCVC/ Inova Health System
64536.24Steve Fortier   Alstead, NH3:58:39.00 111097  732 NHCC/Team NH
65538.03Larry O'Toole   Warren, VT3:58:45.00 216335  786 GMBC Catamount
66539.83Benjamin George   Newhaven, CT3:59:30.00 287370  737 Connecticut Coast Cycling
67541.62Alwin Winkler   Salem, NY3:59:40.00 152016  806 Battenkill/United
68543.41Douglas von Bushberger   New York, NY4:24.00 241135  803 CRCA/Kingpin Racing-HJD
69Alain Giguere   4:42.00  738 Vyloclub Longueuil
70546.99Steven Senne   East Walpole, MA4:1:22.00 227739  797 Boston Road Club
71Christopher Faria   4:1:33.00  730 Bicycle Works
72550.58Walter Fischer   Newbury, VT4:1:46.00 121411  731 GMBC/Catamount
73552.37Steven Marmo   Astoria, NY4:2:18.00 259124  769 CRCA/Setanta
74554.16Julian Eliz III   Garland, TX4:2:30.00 253783  728 Boston Road Club
75555.95James Mernin   Ridgewood, NJ4:2:33.00 209408  776 CRCA/KingPin Racing - HJD
76557.75Zachary Hoover   Los Angeles, CA4:2:43.00 208061  751 Liquid Fitness / Adageo Energy
77Martin Valiquette   4:3:29.00  801 EnCoeur
79561.33Nathaniel Coghlan   Phoenix, AZ4:5:9.00 291461  721 New England Velodrome
80563.12Chris Petrillo   Granby, CT4:5:16.00 228932  788 Williams Cycling
81564.91Bryan Fried   New York, NY4:6:52.00 121224  734 crca/nyvelocity
82Philippe Dallaire   4:7:11.00  722 Vyloclub Longueuil
83568.50James Brosnan   New York, NY4:7:18.00 266263  712 CRCA/NYVelocity
84570.29Christophe Jammet   New York, NY4:7:30.00 209335  756 CRCA/ FGX Racing
85572.08John Buenaventura   New York, NY4:8:45.00 278569  716 CRCA/NYVelocity
86573.87Daniel Bersohn   Newyork, NY4:10:23.00 286952  707 CRCA/NYVelocity
87575.66Ian Rousseau   Boston, MA4:12:53.00 286965  791 Massachusetts Institute of Technology
88577.46Jimmy Andrello   New York, NY4:16:0.00 230311  700 CRCA/Foundation
89579.25Reed Rubey   New York, NY4:21:36.00 206971  792 CRCA / Teany Cycling
90581.04Adam Rosenthal   New York, NY4:24:50.00 248088  796 CRCA/Kingpin Racing-HJD
91582.83Brian Gatens   Ridgewood, NJ4:24:50.00 209392  736 CRCA/Kingpin Racing - HJD
92584.62Steven Youmatz   Middletown, CT4:33:39.00 266205  809 CCNS/Pedal Power
93586.42Eric Carlson   Harrington Park, NJ4:33:52.00 80344  714 Westwood Velo
94588.21Charles Hamilton   Brooktondale, NY4:43:11.00 226402  746 FLCC/Chris Cookies/Swan Cycles
95590.00Alessandro Baldi   Howell, NJ5:6:50.00 267009  703 team atlantic
2147483647Jeremy Dawkins   Gardiner, NY New Paltz 268228  723 The Bicycle Depot

Men - Cat 4/5

 Place Points NameCity, StateTime USAC #BibTeam
1520.87Brian Guercio   White River Junction, VT3:57:31.00 153461  844 
2522.10John Herrick   Contoocook, NH3:57:39.00 296573  847 
3523.34Jim Paolantonio   Narragansett, RI3:57:54.00 296153  869 North Atlantic Velo/Giant/pedros
4524.57Douglas Osborne   Peru, NY3:58:22.00 300029  864 Team Placid Planet
5Douglas Gardner   3:58:40.00  841 
6527.04Andrew LaPlante   Peru, NY3:59:0.00 114465  849 Team Placid Planet
7528.28Gregory Wetzel   New York, NY3:59:13.00 188085  886 Century Road Club Association
8529.51Michael Allen   Silver Lake, NH3:59:13.00 149937  834 Team Allen
9530.75Keane McCullum   Grantham, PA3:59:31.00 297979  857 Team Placid Planet
10531.98Jordan Allen   Ripton, VT3:59:46.00 293939  828 Team Allen
11533.21Harry Zernike   Newyork, NY3:59:46.00 286776  890 CRCA/New York Velocity
12534.45Edward Smith   Plattsburgh, NY3:59:46.00 99200  879 Team Placid Planet
13535.68Caleb Allen   Ripton, VT3:59:56.00 293934  822 Team Allen
14536.92James Willsey   Hinesburg, VT4:5.00 116020  888 GMBC/Catamount
15538.15Richard Batten   Winchester, MA4:32.00 292021  833 NEBC/Cycle Loft/Devonshire Dental
16539.39Jeremy Geiger   Oyster Bay, NY4:38.00 100749  842 roadworx
17540.62John Zouck   Williston, VT4:44.00 64791  880 
18541.86Whitney Hanson   Swanton, VT4:1:6.00 188168  843 GMBC/Catamount
19543.09Erik Petterssen   Somerville, MA4:1:10.00 290135  873 back bay bikes / espresso royal caffe
20544.32Philip Nerges   Bloomfield, NJ4:1:18.00 194416  860 Jimenez Velo Sport
21545.56Paul Sennott   Brighton, MA4:1:24.00 292529  876 Minuteman Road Club
22546.79Robin Liston   Plainfield, NH4:2:1.00 295473  852 Claremont Cycle Depot
23548.03Aaron Swenson   West Lebanon, NH4:2:1.00 256937  885 Dartmouth Cycling
24549.26Anthony Snoble   East Islip, NY4:2:21.00 202036  881 carl Hart
25550.50Joel Ankeny   Elizabethtown, PA4:2:30.00 287290  825 RGM Watches/Richard Sachs Cycles
26551.73Michel Aube   White River Junction, VT4:2:35.00 207979  827 Upper Valley Velo
27552.97Evan Osler   Burlington, VT4:2:44.00 279989  866 GMBC/Catamount
28554.20Bryce May   Fairfield, CT4:5:26.00 278527  855 TargeTraining
29555.43Timothy Hulse   Stowe, VT4:5:35.00 290360  845 Stowe Bike Club
30556.67Andy Bateman   New York, NY4:5:58.00 295608  831 crca
31557.90John Schwarz   Cambridge, VT4:6:2.00 171352  874 
32559.14Shawn Patenaude   Moretown, VT4:6:8.00 100810  870 Fit Werx
33560.37Paul S Connor   Dedham, ME4:6:8.00 249722  837 Belfast Racing Team -BRT
34561.61Timothy Akers   Salt Lake City, UT4:6:43.00 276173  821 Team Placid Planet
35562.84Jeffrey Alpert   New York, NY4:6:43.00 296918  824 CRCA/NYVelocity
36564.08Rory Stamp   Middletown, CT4:6:57.00 280327  884 Boston Road Club
37565.31Steve Owens   Friendship, MD4:8:27.00 222509  867 Latitude/ABRT
38Michael Torney   4:8:49.00  877 
39567.78Anthony Moccia   Newport, VT4:9:4.00 261412  861 Barebones Racing
40569.01Jeff Lee   Enfield, NH4:9:37.00 296128  859 
41570.25Peter Pelychaty   Rochester, NY4:11:19.00 211238  872 Park Ave Bike Team
42571.48Leonard Galati   Eastchester, NY4:14:40.00 278879  840 CRCA/NY Velocity
43572.72Ryan McGarrity   New York, NY4:14:45.00 243436  863 NYVelocity
44573.95Christopher Ford   Essex Junction, VT4:16:15.00 297883  838 
45575.19lenny snyderman   Cohasset, MA4:16:22.00 300877  882 Tour Vitesse
46576.42James Horstmann   Havertown, PA4:17:32.00 290856  850 
47577.66Dan Reilly   Saranac Lake, NY4:17:32.00 293382  875 Team Placid Planet
48578.89Mario Sierra (1 - Cat4)   Maspeth, NY4:20:33.00 193175  878 CRCA
49580.12Richard Kontra   Williston, VT4:24:3.00 257473  856 
50581.36Michael Black   Whitehall, PA4:24:16.00 299967  820 
51582.59Andre Sturm   Essex Junction, VT4:24:28.00 200887  883 GMBC/Catamount
52583.83James Williams   Ft Lee, NJ4:26:31.00 298197  887 CRCA/NYVelocity
53585.06Jonathan Sussman   Brookline, MA4:29:40.00 296768  868 
54John Braun   4:32:28.00  823 
55587.53Alex Kale   Brooklyn, NY4:38:46.00 297016  848 NYVelocity
56Joseph DeMartino   4:48:46.00  832 
57590.00Eric Lundy (1 - Cat5)   Colchester, VT4:54:3.00 281924  862 

Men - Masters - Master - 40-49

 Place Points NameCity, StateTime USAC #BibTeam
1328.65Roger Aspholm   Haworth, NJ3:32:44.00 136195  429 Westwood Velo
2Miguel Sanchez   3:32:55.00  479 Sports Bazar
3335.92John Meerse   Simsbury, CT3:33:8.00 63360  468 OA/CycleMania
4339.55Kevin Hines   East Wareham, MA3:33:8.00 16266  455 Corner Cycle
5343.18John Funk   South Kent, CT3:33:15.00 12562  451 Cycle Fitness
6346.81Robert Lattanzi   New York, NY3:33:22.00 157989  466 Westwood Velo
7350.44Haluk Sarci   Cresskill, NJ3:33:42.00 169549  480 Deno's Wonder Wheel
8354.07Frederic Thomas   Cape Elizabeth, ME3:33:47.00 220670  486 OA/Cyclemania
9357.71George Opria (1 - Cat2)   Manassas, VA3:33:47.00 210668  472 Evolution Cycling Club
10361.34Alan Potter   Newton, MA3:33:52.00 106829  475 Everactive/Workers CompSolutions
11Gino Ainsley   3:33:52.00  426 Les Rouleurs de l'Outaouaus
12368.60Mark Sumner   Clifton Park, NY3:33:57.00 114907  491 CCC/Keltic Const/Zanes Cycles
13372.23Troy Kimball   Austin, TX3:34:3.00 118576  461 Westwood Velo
14375.86Jonathan Bold   Marstons Mills, MA3:34:3.00 117383  431 Corner Cycle
15379.49Monte Frank   Sandy Hook, CT3:34:8.00 82034  446 Cycle Fitness
16383.12Gerard O' Shea   Clinton, CT3:34:8.00 234576  471 CCC/Keltic Const/Zanes Cycles
17386.76Stuart Abramson   Falmouth, ME3:34:8.00 171729  488 OA/Cyclemania
18Lorenzo Caterini   3:34:15.00  438 HUB CYCLE
19394.02James Ignash   Clawson, MI3:34:15.00 276023  458 
20397.65Todd Wheelden (1 - Cat3)   Kents Hill, ME3:34:30.00 83109  493 OA/CycleMania
21401.28Mark Gunsalus   Dudley, MA3:34:34.00 146710  449 Team FUJI Clif Bar
22Robert Orange   3:34:34.00  473 Ride with Rendall
23408.54Max Lippolis   Pound Ridge, NY3:34:48.00 126915  464 TargeTraining
24412.17Samuel Morse   Cohasset, MA3:34:51.00 25187  470 C.L.Noonan/Coast to Coast/KAM
25Jon Gee   3:34:58.00  448 Ride with Rendall
26419.44William Wisse   Toms River, NJ3:34:58.00 38702  492 Team Norwood Agency - The Peddler
27423.07Edward Angeli   Southington, CT3:35:3.00 91227  428 TargeTraining
28426.70Matthew Doran   Nyack, NY3:35:10.00 268390  443 GLOBAL LOCATE RACING
29430.33Michael Bradbury   Broadlands, VA3:35:18.00 187717  435 Evolution Cycling Club
30433.96Bruce Diehl   Jackson, NH3:35:27.00 63934  442 Sunapee S&W Racing
31437.59Clifford Summers   Queensbury, NY3:35:50.00 34634  485 CCC/Keltic Const/Zanes Cycles
32441.22Arthur Robert   Sharon, VT3:36:36.00 246597  478 Onion RIver Sports
33Stephan Marcoux   3:36:36.00  465 Bikeman.com
34448.49Christopher Johnston   Wayzata, MN3:37:3.00 50643  459 Tonka Cycle & Ski/Minnesota Cycling Team
35Andrew Stewart   3:37:29.00  483 Project Freeride
36455.75Jon Orcutt   Brooklyn, NY3:39:45.00 185052  474 CRCA/Axis
37459.38Tobi Schultze   Foxboro, MA3:40:11.00 127424  481 Team FUJI Clif Bar
38Cary Moretti   3:40:15.00  469 Project Freeride
39466.64Joe Straub   Middletown, NY3:40:27.00 203530  484 Westwood Velo
40Phill Vermette   3:40:32.00  487 Caboto Velo
41Andrew Hannaford   3:48:21.00  452 Project Freeride
42477.54Edward Hicks   Middlebury, VT3:48:21.00 52404  454 
43481.17Keith Button   Nottingham, NH3:49:11.00 153475  437 NorEast Cycling
44484.80Richard Brown   Danville, NH3:49:11.00 169536  436 
45488.43Ronald Bourgoin   Carabassett Valley, ME3:49:28.00 4399  434 OA/CycleMania
46492.06Alessandro Matteucci   Brooklyn, NY3:50:11.00 120157  467 Brooklyn Velo Force / GQ Racing
47495.69Alan Cote   Williston, VT3:51:31.00 45207  441 GMBC / Catamount
48499.33Michael Joseph (2 - Cat3)   Maplewwood, NJ3:51:49.00 219928  460 Colavita Racing
49502.96Neil Fitch   Portland, ME3:52:41.00 61873  445 OA/Cyclemania
50506.59Brian Anderson   Concord, MA3:53:26.00 211977  427 International Bicycle/Global
51510.22David Connery   Shelburne, VT3:53:59.00 179486  440 Corner Cycle
52513.85Scott Claes   W Bloomfield, MI3:55:36.00 106137  439 Flying Rhino Cycling Club
53517.48Victor Siegfried   Reston, VA3:56:49.00 185280  482 Evolution Cycling Club
54521.11Greg Ferguson (2 - Cat2)   Glassboro, NJ3:59:10.00 11462  444 Penn State Hershey Cancer Inst.
55Robin Bolduc   4:27:44.00  433 Ride with Rendall

Men - Masters - Master - 50-99

 Place Points NameCity, StateTime USAC #BibTeam
1382.69Hank Pfeifle   Brunswick, ME3:38:56.00 57045  548 OA/Cyclemania
2Neil Hendry   3:39:17.00  525 La Bicicletta / J. Lindeberg
3387.93David Kellogg   Providence, RI3:39:37.00 75105  529 Arc En Ciel
4390.55Richard Sorenson   Rutland, VT3:39:58.00 53455  554 Battenkill-United
5393.16Douglas O'Neill   West New York, NJ3:40:1.00 50217  545 Deno's Wonder Wheel
6395.78Philip Beliveau   St George, VT3:40:3.00 68336  502 Champlain Valley Velo
7398.40William Thompson   West Hartford, CT3:40:10.00 35402  558 CCC/Keltic Const/Zanes Cycles
8Geoff Banner   3:40:10.00  500 ZM Cycle
9403.64Rick Reynolds   Truckee, CA3:40:10.00 287475  549 Cyclepathes/Wild Cherries Racing
10406.26Alan Blanchard   New City, NY3:40:10.00 255105  506 Westwood Velo
11408.87Mark Wolowiec   Davisburg, MI3:40:23.00 41215  560 Flying Rhino Cycling Club
12411.49Robert Meikle   Sayre, PA3:40:40.00 211727  542 Mystic Velo Club
13414.11Robert Roldan   Somerville, MA3:41:8.00 98318  550 everactiveonline/Workers Comp Solutions
14416.73Bob Donahue   Princeton, MA3:41:17.00 9768  519 Gearworks/Spinarts
15419.35William Black   Cumberland Foreside, ME3:41:33.00 3835  505 OA/CycleMania
16421.97Mark Luzio (1 - Cat3)   Brooklyn, CT3:42:5.00 83266  540 Cycle Fitness
17424.59David Birrell   Adams, MA3:42:20.00 116151  504 Competetive Edge Racing Team
18427.20Bruce Townend   Windsor, MA3:42:27.00 75172  559 Competitive Edge Racing Team
19429.82Glenn Swan   Freeville, NY3:42:38.00 47399  556 FLCC Chris's Cookies
20432.44Michael Claus   Kennebunk, ME3:42:48.00 119604  511 OA/Cyclemania
21435.06Jody Dean   Hudson, MA3:43:8.00 63939  515 International Bicycle Center
22437.68Mark Dutka   Uncasville, CT3:43:27.00 189103  521 Mystic Velo
23440.30James Nash   North Hampton, NH3:44:55.00 64384  544 CCB Racing
24442.91Kevin Haley   Vernon, NJ3:45:10.00 173214  517 Signature Cycles/Rockstar Games
25Dzmitry Buben   3:48:11.00  507 CCB Racing Team
26448.15Timothy Lung   Hagerstown, MD3:50:56.00 45621  539 AVC/Team Hagerstown - Washington Co
27450.77David Linden   Yellow Springs, OH3:51:30.00 190519  538 Flying Rhino Cycling Club
28453.39Scott Klion (2 - Cat3)   New York, NY3:52:21.00 152618  532 Competitive Edge
29456.01Graydon Stevens   Cape Elizabeth, ME3:52:41.00 51815  555 OA/Cyclemania
30458.63David King   Boxford, MA3:52:55.00 19159  530 CCB/Volkswagen
31461.24John Grenier   Lewiston, ME3:53:8.00 66046  524 Team Fuji fueled by Clif Bar
32463.86John Laupheimer   Lincoln, MA3:53:28.00 240990  535 International Bicycle/Global
33Doug Corner   3:54:18.00  513 BikeRace Ottawa
34469.10Anthony (Tony) Bilotta   Aiken, SC3:54:23.00 126767  503 Van Dessel
35471.72Ken Coleman   New York, NY3:54:29.00 199626  512 Housatonic Wheel Club
36Greg Christie   3:54:58.00  510 Ride with Rendall
37476.95Dennis Crockett   Keymar, MD3:55:6.00 264085  514 AVC/Team Hagerstown-Washington Co
38479.57Stephen Geist   Brooklyn, NY4:2:14.00 236880  523 Kissena Cycling Club
39482.19David Burns   Watertown, NY4:4:1.00 244387  508 
40484.81Bruce Schwartz   Armonk, NY4:4:19.00 241442  553 Signature Cycles/Rockstar Games
41487.43Matthew Moore   West Rupert, VT4:4:27.00 24938  543 Berkshire Cycling Assoc.
42Robert Faltus   4:4:40.00  522 Ride with Rendall
43492.66Scott Hodder   Oceanport, NJ4:5:28.00 46178  526 Signature Cycles- Rockstar Games
44Robert Massicotte   4:6:24.00  541 CyclepathMarkham.com
45497.90Jerome Jacobs   Wayland, MA4:9:40.00 262078  528 NEBC/Cycle Loft/Devonshire Dental
46500.52Wayne Kirk   Old Lyme, CT4:11:13.00 184192  531 Mystic Velo Club
47503.14Alan Lesage   South Burlington, VT4:11:44.00 185190  536 GMBC/Catamount
48Stephane Lacasse   4:12:51.00  533 ACE
49508.38Robert Dillon   Warren, VT4:13:14.00 151429  516 mad river riders
50510.99Robert Licho   Waban, MA4:15:11.00 48802  537 Boston Scientific Cycling Club
51Pierre Lang   4:20:5.00  534 indypendant
52516.23Jack Rueckheim   Freeville, NY4:27:47.00 264445  552 Chris Cookies/FLCC
53518.85John Dole (1 - Cat5)   Huntington, NY4:33:55.00 279203  518 
54521.47Kelly Parsons   Lyme, CT5:30:55.00 147170  547 Mystic Velo Club

Men - Junior - 10-18

 Place Points NameCity, StateTime USAC #BibTeam
1Kevin Massicotte   3:27:47.00  638 CyclepathMarkham.com
2Alexis Cartier   3:28:16.00  624 
3303.37Luke Keough   Sandwich, MA3:28:35.00 229135  643 CLNoonan/KAM/Coast to Coast
4306.86Alexey Vermeulen   Pinckney, MI3:28:52.00 258681  578 A2 HighGear; Spam Stops Here
5Antoni Loignon   3:28:57.00  635 GARNEAU
6313.84Paul Lynch   Colchester, CT3:29:16.00 211959  581 CLNoonan/KAM/Coast to Coast
7Patrick Chartrand   3:29:44.00  627 
8320.81Nathan Brown   Covington, TN3:29:48.00 188123  626 Hot Tubes Development Team
9Francis Desbiens   3:30:25.00  603 Garneau-Club-Chaussures-Ogilvy-Renault
10Ryan MacDonald   3:30:32.00  611 Garneau-Club Chaussures-Ogilvy Renault
11331.27Chris Esposito   Gorham, ME3:31:5.00 279637  632 
12334.76Benjamin Salibra   Fayetteville, NY3:31:36.00 233370  618 NERT/CRCA/Junior Development
13Philippe Lacasse   3:31:40.00  634 Pro Bike Pool Kuota
14Philippe Vyzina   3:31:58.00  586 Garneau Club Chaussure Ogilvy Renault
15345.22Benjamin Wolfe   Old Lyme, CT3:31:58.00 260405  587 NERT/Mystic Velo Juniors
16Jean-Michel Naud   3:32:33.00  615 Pro Bike Pool Kuota
17Nicolas Tremblay   3:33:10.00  642 Specialized
18Pierrick Naud   3:33:16.00  639 Pro Bike Pool Kuota
19359.17Gavin Mannion   Dedham, MA3:35:46.00 218736  636 Hot Tubes Development Team
20Stuart Wight   3:35:51.00  621 Hot Tubes Development Cycling
21Antoine Duchesne   3:35:54.00  630 EVA DEVINCI
22369.63G Lawson Craddock   Austin, TX3:35:56.00 194685  602 Hot Tubes Development Cycling
23David Onsow   3:36:19.00  584 Espoirs Laval
24Jean-Richard Cormier   3:37:59.00  628 Garneau-Club Chaussures-Ogilvy-Renault
25Maxime Bilodeau   3:38:52.00  623 Dynamiks de Contrecoeur
26Raphael Massy Viau   3:39:41.00  612 Pro Bike Pool Kuota
27Matteo Dal-Cin   3:40:24.00  625 Pro Bike Pool Kuota
28Simon-Pierre Gauthier   3:40:30.00  579 Espoirs Laval
29394.04Eli Mernit   Bronx, NY3:42:48.00 270121  583 GS Gotham/Toga
30Chris Balestrini   3:44:2.00  600 Reynold Cycle
31401.02Jesse Keough   Sandwich, MA3:44:31.00 229606  608 CLNoonan/KAM/Coast to Coast
32Jason Massicotte   3:45:2.00  582 CyclePath Markham
33Frydyric Ouellet-Lacroix   3:46:29.00  640 EVA DEVINCI
34Jean-Simon Houle   3:47:18.00  607 Garneau - Club Chaussures - Ogilvy Renau
35Philippe Nadon   3:50:6.00  613 Pro Bike Pool Kuota
36418.46Nathan Piche   Hoosick Falls, NY3:51:42.00 277471  617 FARM TEAM CYCLING
37421.94Synjen Marrocco   Hanson, MA3:52:3.60 276237  637 CLNoonan/KAM/Coast to Coast
38Benjamin Dolva   3:52:27.00  604 FARM TEAM CYCLING
39William Fontaine   3:52:48.00  605 EVA DEVINCI
40432.40Curtis White   Delanson, NY3:53:10.00 234696  577 CBRC/Capital Bicycle Racing Club
41Benoit Paradis   3:56:29.00  641 
42Olivier Delaney   3:57:30.00  575 ESPOIRS LAVAL
43Brandon Spencer   3:58:53.00  620 Peterborough Cycling Club
44Laurent Dallaire   3:58:53.00  629 Pro Bike Pool Kuota
45449.84Nate Morse   Cohasset, MA3:58:56.00 235572  576 C.L. Noonan/KAM/Coast to Coast
46Jimmy Lapointe   3:59:8.00  609 eva devinci
47456.82Evan Kirk   Old Lyme, CT4:3:13.00 257923  580 NERT/Mystic Velo/Connaughty
48Kiernan Orange   4:10:5.00  616 Ride with Rendall
49Andrew Scollard   4:29:31.00  619 Reynold Cycle
50467.28Emmanuel Goguen   Hopedale, MA4:50:10.00 209949  633 CLNoonan/KAM/Coast to Coast

Women - Cat 1/2/3

 Place Points NameCity, StateTime USAC #BibTeam
1253.14Lea Davison   Jericho, VT4:6:49.00 164014  654 Maxxis/Rocky Mountain
2262.85Anna McLoon   Medford, MA4:7:42.00 258368  668 Altarum Women's Cycling Team
3272.55Rachel Warner   Anna, TX4:8:7.00 200801  676 Salamander
4282.25Clara Kelly   Boxford, MA4:8:16.00 275626  660 NEBC/Cycle Loft/Devonshire Dental
5291.95Beth Miller   Delmar, NY4:8:52.00 239476  670 Anthem Sports Women's Cycling
6301.65Silke Wunderwald   Hopkinton, RI4:9:4.00 236023  678 Team Kenda
7311.35Amanda Watson   Washington, DC4:9:19.00 256260  677 Artemis
8321.05Ann Marie Miller   New York, NY4:9:48.00 127444  669 CRCA Sanchez Houlihan Lokey
9330.75Amity Elliot (1 - Cat1)   Boulder, CO4:9:58.00 222471  656 Salamander
10340.46Ashley Prine   Brooklyn, NY4:10:5.00 247237  673 CRCA/Radical Media
11Johanne Cyr   4:10:8.00  653 Rocky Mountain
12359.86Emma Bast   Hinesburg, VT4:10:36.00 261361  650 
13369.56Sarah Krzysiak   Utica, NY4:10:53.00 233739  662 Syracuse Bicycle/Spokepost.com
14379.26Audrey Friedrichsen Scott   Beacon, NY4:11:5.00 273110  659 Anthem Sports Womens' Cycling
15388.96lisa force   Jersey City, NJ4:11:20.00 249622  658 CRCA/comedy central-sid's bikes
16Allison Lampi   4:12:33.00  663 Team Ultralink
17Emma Petersen   4:12:50.00  672 Team Ultralink
18418.06Jenny Ives   Saratoga Springs, NY4:14:48.00 245769  665 Anthem Women's Cycling Team
19Christiane Knobbe   4:15:53.00  661 Team MCOR
20437.47Marjolein Schat   Glen Ridge, NJ4:17:29.00 264895  674 Team Delphine
21447.17Katherine Papillon-Rodrigue   Granby, CT4:18:27.00 256220  671 Williams Cycling
22Julie Marceau   4:18:43.00  664 Specialized-Mazda-Samson
23466.57Maria Quiroga   New York, NY4:18:57.00 200041  680 CRCA/Radical Media
24476.27Kathryne Carr   Salt Lake City , UT4:19:38.00 219262  652 Sunapee S&W/Continental Paving
25Gillian Carleton   4:20:58.00  651 Total Restoration Cycling

Women - Cat 3/4

 Place Points NameCity, StateTime USAC #BibTeam
1401.47Donna McMahon   Farmingdale, NY4:5:43.00 264367  160 CRCA/Radical Media
2405.20Fabienne Gerard   New York, NY4:6:5.00 281037  151 CRCA / Teany Cycling
3408.93Dara Kiese   New York, NY4:6:9.01 264746  155 CRCA/Radical Media
4412.66Laura Ralston   Cambridge, MA4:6:15.00 289751  168 MIT/FXDD
5Valyrie Crkte   4:6:25.00  144 GURU
6420.11Yasmine White   Trinidad, CA4:6:59.00 211940  176 
7423.84Jessica Donavan   Shelburne, VT4:7:26.00 283660  182 
8427.57Paula Brunetto   Westcornwall, CT4:7:31.00 285882  185 
9431.30Amy Kneale   Dewitt, NY4:7:42.00 241641  156 Syracuse Bicycle/Spokepost.com
10435.03Karla Labbe   Cincinnati, OH4:7:51.00 292545  195 
11Yvelyne Gagnon   4:7:51.00  153 
12442.49Erica Adelberg   New York, NY4:7:51.00 242487  140 CRCA/Radical Media
13Carol Deavy   4:8:2.00  146 Les rouleurs De L'Outaouaie
14449.94Jennifer Bonaccorsi   Portland, ME4:8:14.00 300822  179 
15453.67Sue Kuenstner   Greenwich, CT4:8:32.00 190748  157 Cafeteros Cycling Club
16457.40Kristin Lotito   West Hempstead, NY4:8:37.00 271858  194 CRCA/Sanchez-Houlihan Lokey
17Anne-Marie Morin   4:8:52.00  141 Garneau Club-Chaussures
18464.86Shannon Madison   Somerville, MA4:9:5.00 264935  165 NEBC/Cycle Loft/Devonshire Dental
19Elodie Gillard   4:9:9.00  152 Garneau-Club Chaussure- Ogilvy Renault
20472.31Frances Morrison (1 - Cat3)   Easthampton, MA4:9:11.00 241197  161 Mount Holyoke College
21476.04Colleen Conway   New York, NY4:9:18.01 258039  180 CRCA / Teany Cycling
22479.77Edie Perkins   Brooklyn, NY4:9:20.00 264163  163 Kissena Cycling Club
23Adriane Provost   4:9:28.00  166 Saputo
24487.23Susanna Piller   Plattsburgh, NY4:11:6.00 251680  164 Anthem Sports Women's Cycling
25490.96Anneliese Haines   Newyork, NY4:11:42.00 281541  190 CRCA/NY Velocity
26Elisabeth Albert   4:12:28.00  145 Garneau-Club-Chaussures-Ogilvy-Renault
27498.42Gabrielle Fisher   Bronx, NY4:13:29.00 264788  148 CRCA/Sanchez-Houlihan Lokey
28502.14Jane Geisse   Chagrin Falls, OH4:13:51.00 261161  150 Team Lake Effect
29Rachel O'Reilly   4:14:27.00  167 independent
30509.60Caitlin Curran   Waitsfield, VT4:15:11.00 248945  177 Bates College
31513.33Rebecca Lowe (1 - Cat4)   Newport, RI4:15:44.00 295789  191 
32517.06Anna Eisenstein   Boston, MA4:16:6.00 290714  147 Green Line Velo
33520.79Heidi Reijm   Brooklyn, NY4:16:20.00 250616  171 Kissena
34524.52Tracy Wargo   New York, NY4:16:40.80 215383  175 CRCA/Teany
35528.24Natalia Gardiol   San Francisco, CA4:17:9.00 235753  186 Cambridge Bicycle / Igleheart Frames
36531.97Xieyue (Pan Pan) Fan   Atherton, CA4:17:19.00 273441  183 CRCA Sanchez Houlihan Lokey
37535.70Lindsey Paluska   Brooklyn, NY4:18:19.00 271611  199 CRCA/NYVelocity
38539.43Peta Takai   Marina Del Rey, CA4:18:23.00 249299  170 CRCA / Teany Cycling
39543.16Caroline Gaynor   Long Island City, NY4:20:45.00 223163  187 CRCA/PROASSHIT.dk
40546.89Cynthia Lo   New York, NY4:20:52.00 258213  193 TriLife Racing
41550.62Donna Moody   Lakeplacid, NY4:20:56.00 282490  196 Team Placid Planet
42Catherine Rainville   4:21:59.00  172 
43558.07Lilynn Graves   Ithaca, NY4:22:13.00 13946  189 Velo Bella/Swan Cycles
44Geneviive Bourgeois   4:22:29.00  142 EVA DEVINCI
45565.53Renee Engelhardt   New York, NY4:23:26.00 287624  181 CRCA/NYVelocity
46Stephanie Rees   4:26:43.00  169 Ottawa Bicycle Club
47572.99Amy Gassman (2 - Cat4)   Old Lyme, CT4:29:29.00 291774  188 
48576.72Caroline Savage   Seattle, WA4:31:26.00 238235  173 Columbia University
49580.45Maggie Sullivan (2 - Cat3)   Boulder, CO4:33:37.00 261891  198 
50584.17stacy jargowsky   Newyork, NY4:55:33.00 282018  192 crca/sbr multisports
51587.90Debbie Tirrito (3 - Cat3)   Winooski, VT5:3:57.00 215732  174 GMBC

Report missing or incorrect license numbers

Volkswagen
Sierra NevadaSpyUSACDFShimanoBonk Breaker
UCI USA Cycling is the official governing body for all disciplines of competitive cycling in the United States. The 501c3, membership-based organization aims both to achieve sustained success in international cycling competition and to grow competitive cycling in America while delivering an exceptional customer experience.
View Children's Online Privacy Protection Policy
US Olympic Committee